sensor_id;sensor_type;location;lat;lon;timestamp;pressure;altitude;pressure_sealevel;temperature;humidity
63343;BME280;49465;57.664;39.686;2024-01-10T00:00:10;99713.22;;;-3.29;46.90
63343;BME280;49465;57.664;39.686;2024-01-10T00:02:43;99716.66;;;-3.30;46.75
63343;BME280;49465;57.664;39.686;2024-01-10T00:05:17;99708.09;;;-3.27;47.03
63343;BME280;49465;57.664;39.686;2024-01-10T00:07:52;99713.97;;;-3.22;46.64
63343;BME280;49465;57.664;39.686;2024-01-10T00:10:21;99717.47;;;-3.28;46.61
63343;BME280;49465;57.664;39.686;2024-01-10T00:12:53;99726.97;;;-3.33;47.38
63343;BME280;49465;57.664;39.686;2024-01-10T00:15:27;99754.25;;;-3.29;46.98
63343;BME280;49465;57.664;39.686;2024-01-10T00:17:59;99759.38;;;-3.29;47.15
63343;BME280;49465;57.664;39.686;2024-01-10T00:20:33;99777.50;;;-3.41;46.82
63343;BME280;49465;57.664;39.686;2024-01-10T00:23:11;99789.47;;;-3.42;47.13
63343;BME280;49465;57.664;39.686;2024-01-10T00:25:45;99790.25;;;-3.36;46.71
63343;BME280;49465;57.664;39.686;2024-01-10T00:28:17;99803.78;;;-3.27;46.87
63343;BME280;49465;57.664;39.686;2024-01-10T00:30:48;99797.03;;;-3.31;47.10
63343;BME280;49465;57.664;39.686;2024-01-10T00:33:24;99805.63;;;-3.35;46.93
63343;BME280;49465;57.664;39.686;2024-01-10T00:35:59;99810.72;;;-3.33;46.65
63343;BME280;49465;57.664;39.686;2024-01-10T00:38:33;99818.47;;;-3.38;47.33
63343;BME280;49465;57.664;39.686;2024-01-10T00:41:00;99823.53;;;-3.33;47.18
63343;BME280;49465;57.664;39.686;2024-01-10T00:43:32;99831.22;;;-3.33;47.20
63343;BME280;49465;57.664;39.686;2024-01-10T00:46:05;99839.06;;;-3.43;46.92
63343;BME280;49465;57.664;39.686;2024-01-10T00:48:37;99845.06;;;-3.44;47.01
63343;BME280;49465;57.664;39.686;2024-01-10T00:51:11;99856.25;;;-3.51;47.39
63343;BME280;49465;57.664;39.686;2024-01-10T00:53:48;99858.94;;;-3.59;47.01
63343;BME280;49465;57.664;39.686;2024-01-10T00:56:25;99869.88;;;-3.47;47.22
63343;BME280;49465;57.664;39.686;2024-01-10T00:58:54;99861.34;;;-3.46;46.72
63343;BME280;49465;57.664;39.686;2024-01-10T01:01:23;99873.31;;;-3.48;47.28
63343;BME280;49465;57.664;39.686;2024-01-10T01:04:06;99868.94;;;-3.40;46.81
63343;BME280;49465;57.664;39.686;2024-01-10T01:06:40;99863.81;;;-3.42;47.26
63343;BME280;49465;57.664;39.686;2024-01-10T01:09:15;99881.69;;;-3.35;47.08
63343;BME280;49465;57.664;39.686;2024-01-10T01:11:44;99885.88;;;-3.31;46.69
63343;BME280;49465;57.664;39.686;2024-01-10T01:14:21;99883.31;;;-3.30;46.55
63343;BME280;49465;57.664;39.686;2024-01-10T01:16:47;99881.75;;;-3.40;47.16
63343;BME280;49465;57.664;39.686;2024-01-10T01:19:19;99885.13;;;-3.35;46.64
63343;BME280;49465;57.664;39.686;2024-01-10T01:21:56;99891.06;;;-3.33;46.79
63343;BME280;49465;57.664;39.686;2024-01-10T01:24:34;99894.47;;;-3.31;46.73
63343;BME280;49465;57.664;39.686;2024-01-10T01:27:09;99903.91;;;-3.34;46.96
63343;BME280;49465;57.664;39.686;2024-01-10T01:29:46;99907.38;;;-3.37;46.86
63343;BME280;49465;57.664;39.686;2024-01-10T01:32:21;99917.56;;;-3.35;46.63
63343;BME280;49465;57.664;39.686;2024-01-10T01:34:58;99927.88;;;-3.39;46.65
63343;BME280;49465;57.664;39.686;2024-01-10T01:37:32;99938.16;;;-3.39;46.60
63343;BME280;49465;57.664;39.686;2024-01-10T01:40:07;99942.53;;;-3.48;46.77
63343;BME280;49465;57.664;39.686;2024-01-10T01:42:42;99948.41;;;-3.42;46.33
63343;BME280;49465;57.664;39.686;2024-01-10T01:45:24;99957.03;;;-3.46;46.58
63343;BME280;49465;57.664;39.686;2024-01-10T01:48:04;99966.44;;;-3.48;46.29
63343;BME280;49465;57.664;39.686;2024-01-10T01:50:36;99963.00;;;-3.45;46.30
63343;BME280;49465;57.664;39.686;2024-01-10T01:53:13;99973.28;;;-3.47;46.24
63343;BME280;49465;57.664;39.686;2024-01-10T01:55:50;99975.03;;;-3.50;46.31
63343;BME280;49465;57.664;39.686;2024-01-10T01:58:22;99978.50;;;-3.54;46.91
63343;BME280;49465;57.664;39.686;2024-01-10T02:00:54;99985.38;;;-3.60;46.14
63343;BME280;49465;57.664;39.686;2024-01-10T02:03:28;99987.94;;;-3.60;46.58
63343;BME280;49465;57.664;39.686;2024-01-10T02:06:03;99991.34;;;-3.58;46.09
63343;BME280;49465;57.664;39.686;2024-01-10T02:08:37;99993.09;;;-3.63;46.46
63343;BME280;49465;57.664;39.686;2024-01-10T02:11:12;100008.53;;;-3.67;46.60
63343;BME280;49465;57.664;39.686;2024-01-10T02:13:47;100008.53;;;-3.69;46.23
63343;BME280;49465;57.664;39.686;2024-01-10T02:16:22;100012.81;;;-3.66;46.13
63343;BME280;49465;57.664;39.686;2024-01-10T02:18:50;100013.72;;;-3.73;46.71
63343;BME280;49465;57.664;39.686;2024-01-10T02:21:24;100018.00;;;-3.74;46.57
63343;BME280;49465;57.664;39.686;2024-01-10T02:24:02;100019.75;;;-3.79;46.41
63343;BME280;49465;57.664;39.686;2024-01-10T02:26:36;100027.44;;;-3.81;46.32
63343;BME280;49465;57.664;39.686;2024-01-10T02:29:03;100024.94;;;-3.82;46.01
63343;BME280;49465;57.664;39.686;2024-01-10T02:31:37;100035.19;;;-3.82;46.48
63343;BME280;49465;57.664;39.686;2024-01-10T02:34:15;100034.34;;;-3.87;46.07
63343;BME280;49465;57.664;39.686;2024-01-10T02:36:49;100030.09;;;-3.88;46.64
63343;BME280;49465;57.664;39.686;2024-01-10T02:39:24;100031.81;;;-3.90;45.99
63343;BME280;49465;57.664;39.686;2024-01-10T02:41:53;100032.69;;;-3.93;46.24
63343;BME280;49465;57.664;39.686;2024-01-10T02:44:23;100043.81;;;-3.94;46.32
63343;BME280;49465;57.664;39.686;2024-01-10T02:47:00;100047.25;;;-3.97;46.23
63343;BME280;49465;57.664;39.686;2024-01-10T02:49:35;100050.75;;;-4.04;45.98
63343;BME280;49465;57.664;39.686;2024-01-10T02:52:07;100048.25;;;-4.13;46.05
63343;BME280;49465;57.664;39.686;2024-01-10T02:54:41;100043.13;;;-4.14;46.32
63343;BME280;49465;57.664;39.686;2024-01-10T02:57:19;100045.75;;;-4.22;46.23
63343;BME280;49465;57.664;39.686;2024-01-10T02:59:53;100056.00;;;-4.22;46.27
63343;BME280;49465;57.664;39.686;2024-01-10T03:02:28;100066.28;;;-4.25;46.37
63343;BME280;49465;57.664;39.686;2024-01-10T03:05:06;100068.91;;;-4.36;46.06
63343;BME280;49465;57.664;39.686;2024-01-10T03:07:35;100079.13;;;-4.36;46.26
63343;BME280;49465;57.664;39.686;2024-01-10T03:10:14;100078.31;;;-4.40;46.04
63343;BME280;49465;57.664;39.686;2024-01-10T03:12:42;100092.81;;;-4.43;46.23
63343;BME280;49465;57.664;39.686;2024-01-10T03:15:17;100094.53;;;-4.45;46.44
63343;BME280;49465;57.664;39.686;2024-01-10T03:17:48;100094.53;;;-4.44;46.45
63343;BME280;49465;57.664;39.686;2024-01-10T03:20:17;100106.50;;;-4.44;46.29
63343;BME280;49465;57.664;39.686;2024-01-10T03:22:49;100107.38;;;-4.50;46.26
63343;BME280;49465;57.664;39.686;2024-01-10T03:25:18;100113.34;;;-4.46;45.84
63343;BME280;49465;57.664;39.686;2024-01-10T03:27:53;100117.66;;;-4.59;46.31
63343;BME280;49465;57.664;39.686;2024-01-10T03:30:25;100125.34;;;-4.58;46.07
63343;BME280;49465;57.664;39.686;2024-01-10T03:32:54;100136.44;;;-4.63;46.29
63343;BME280;49465;57.664;39.686;2024-01-10T03:35:28;100134.72;;;-4.63;46.13
63343;BME280;49465;57.664;39.686;2024-01-10T03:38:02;100143.28;;;-4.65;45.96
63343;BME280;49465;57.664;39.686;2024-01-10T03:40:34;100154.38;;;-4.69;46.04
63343;BME280;49465;57.664;39.686;2024-01-10T03:43:12;100160.34;;;-4.67;46.15
63343;BME280;49465;57.664;39.686;2024-01-10T03:45:47;100166.31;;;-4.62;46.13
63343;BME280;49465;57.664;39.686;2024-01-10T03:48:19;100174.81;;;-4.65;45.88
63343;BME280;49465;57.664;39.686;2024-01-10T03:50:56;100175.69;;;-4.64;45.91
63343;BME280;49465;57.664;39.686;2024-01-10T03:53:25;100177.38;;;-4.65;45.58
63343;BME280;49465;57.664;39.686;2024-01-10T03:56:03;100174.00;;;-4.62;45.81
63343;BME280;49465;57.664;39.686;2024-01-10T03:58:37;100185.06;;;-4.60;45.88
63343;BME280;49465;57.664;39.686;2024-01-10T04:01:09;100186.78;;;-4.65;45.99
63343;BME280;49465;57.664;39.686;2024-01-10T04:03:41;100189.38;;;-4.70;45.63
63343;BME280;49465;57.664;39.686;2024-01-10T04:06:18;100193.63;;;-4.73;45.67
63343;BME280;49465;57.664;39.686;2024-01-10T04:08:53;100199.59;;;-4.74;45.82
63343;BME280;49465;57.664;39.686;2024-01-10T04:11:31;100207.28;;;-4.74;45.58
63343;BME280;49465;57.664;39.686;2024-01-10T04:14:05;100215.81;;;-4.75;45.95
63343;BME280;49465;57.664;39.686;2024-01-10T04:16:43;100212.41;;;-4.76;45.59
63343;BME280;49465;57.664;39.686;2024-01-10T04:19:17;100211.53;;;-4.77;45.78
63343;BME280;49465;57.664;39.686;2024-01-10T04:21:47;100216.69;;;-4.80;45.96
63343;BME280;49465;57.664;39.686;2024-01-10T04:24:18;100214.97;;;-4.81;45.73
63343;BME280;49465;57.664;39.686;2024-01-10T04:26:55;100226.91;;;-4.81;45.64
63343;BME280;49465;57.664;39.686;2024-01-10T04:29:30;100224.34;;;-4.83;45.80
63343;BME280;49465;57.664;39.686;2024-01-10T04:32:02;100226.94;;;-4.86;45.47
63343;BME280;49465;57.664;39.686;2024-01-10T04:34:28;100244.84;;;-4.86;45.64
63343;BME280;49465;57.664;39.686;2024-01-10T04:37:03;100250.81;;;-4.90;45.71
63343;BME280;49465;57.664;39.686;2024-01-10T04:39:48;100255.09;;;-4.95;45.63
63343;BME280;49465;57.664;39.686;2024-01-10T04:42:19;100259.34;;;-4.97;45.69
63343;BME280;49465;57.664;39.686;2024-01-10T04:44:52;100268.75;;;-4.98;45.73
63343;BME280;49465;57.664;39.686;2024-01-10T04:47:29;100270.44;;;-5.01;45.81
63343;BME280;49465;57.664;39.686;2024-01-10T04:50:17;100274.72;;;-5.03;45.75
63343;BME280;49465;57.664;39.686;2024-01-10T04:52:49;100277.25;;;-5.06;46.05
63343;BME280;49465;57.664;39.686;2024-01-10T04:55:18;100287.50;;;-5.09;45.52
63343;BME280;49465;57.664;39.686;2024-01-10T04:57:50;100293.44;;;-5.10;45.66
63343;BME280;49465;57.664;39.686;2024-01-10T05:00:18;100295.16;;;-5.14;45.70
63343;BME280;49465;57.664;39.686;2024-01-10T05:02:50;100300.28;;;-5.17;45.83
63343;BME280;49465;57.664;39.686;2024-01-10T05:05:29;100307.09;;;-5.21;45.71
63343;BME280;49465;57.664;39.686;2024-01-10T05:08:11;100308.78;;;-5.26;45.56
63343;BME280;49465;57.664;39.686;2024-01-10T05:10:40;100302.81;;;-5.29;45.75
63343;BME280;49465;57.664;39.686;2024-01-10T05:13:17;100313.91;;;-5.30;45.59
63343;BME280;49465;57.664;39.686;2024-01-10T05:15:51;100327.53;;;-5.33;45.30
63343;BME280;49465;57.664;39.686;2024-01-10T05:18:18;100321.53;;;-5.47;45.84
63343;BME280;49465;57.664;39.686;2024-01-10T05:20:55;100328.38;;;-5.52;45.84
63343;BME280;49465;57.664;39.686;2024-01-10T05:23:26;100325.81;;;-5.52;45.77
63343;BME280;49465;57.664;39.686;2024-01-10T05:25:58;100336.00;;;-5.56;45.57
63343;BME280;49465;57.664;39.686;2024-01-10T05:28:30;100342.81;;;-5.59;45.42
63343;BME280;49465;57.664;39.686;2024-01-10T05:31:01;100353.03;;;-5.64;45.49
63343;BME280;49465;57.664;39.686;2024-01-10T05:33:32;100353.00;;;-5.67;45.38
63343;BME280;49465;57.664;39.686;2024-01-10T05:36:05;100348.75;;;-5.71;45.55
63343;BME280;49465;57.664;39.686;2024-01-10T05:38:37;100351.28;;;-5.76;45.29
63343;BME280;49465;57.664;39.686;2024-01-10T05:41:14;100355.53;;;-5.81;45.38
63343;BME280;49465;57.664;39.686;2024-01-10T05:43:46;100357.22;;;-5.84;45.28
63343;BME280;49465;57.664;39.686;2024-01-10T05:46:18;100355.50;;;-5.90;45.26
63343;BME280;49465;57.664;39.686;2024-01-10T05:48:52;100359.75;;;-5.93;45.18
63343;BME280;49465;57.664;39.686;2024-01-10T05:51:24;100355.50;;;-5.96;45.08
63343;BME280;49465;57.664;39.686;2024-01-10T05:53:54;100356.34;;;-5.99;45.05
63343;BME280;49465;57.664;39.686;2024-01-10T05:56:26;100351.22;;;-6.03;44.98
63343;BME280;49465;57.664;39.686;2024-01-10T05:58:58;100359.72;;;-6.06;45.18
63343;BME280;49465;57.664;39.686;2024-01-10T06:01:32;100363.09;;;-6.10;45.21
63343;BME280;49465;57.664;39.686;2024-01-10T06:04:04;100363.06;;;-6.16;45.05
63343;BME280;49465;57.664;39.686;2024-01-10T06:06:33;100357.97;;;-6.19;45.21
63343;BME280;49465;57.664;39.686;2024-01-10T06:09:10;100361.34;;;-6.22;45.35
63343;BME280;49465;57.664;39.686;2024-01-10T06:11:45;100370.66;;;-6.25;44.93
63343;BME280;49465;57.664;39.686;2024-01-10T06:14:12;100374.91;;;-6.30;44.90
63343;BME280;49465;57.664;39.686;2024-01-10T06:16:44;100371.47;;;-6.36;45.08
63343;BME280;49465;57.664;39.686;2024-01-10T06:19:16;100379.09;;;-6.42;44.90
63343;BME280;49465;57.664;39.686;2024-01-10T06:21:50;100382.44;;;-6.47;45.39
63343;BME280;49465;57.664;39.686;2024-01-10T06:24:20;100388.41;;;-6.50;45.17
63343;BME280;49465;57.664;39.686;2024-01-10T06:26:50;100385.84;;;-6.54;45.24
63343;BME280;49465;57.664;39.686;2024-01-10T06:29:22;100388.31;;;-6.59;44.88
63343;BME280;49465;57.664;39.686;2024-01-10T06:31:54;100402.75;;;-6.64;45.35
63343;BME280;49465;57.664;39.686;2024-01-10T06:34:41;100403.56;;;-6.68;45.08
63343;BME280;49465;57.664;39.686;2024-01-10T06:37:13;100400.97;;;-6.74;45.13
63343;BME280;49465;57.664;39.686;2024-01-10T06:39:47;100406.88;;;-6.79;44.93
63343;BME280;49465;57.664;39.686;2024-01-10T06:42:28;100410.25;;;-6.83;44.92
63343;BME280;49465;57.664;39.686;2024-01-10T06:45:02;100413.59;;;-6.88;45.13
63343;BME280;49465;57.664;39.686;2024-01-10T06:47:38;100422.06;;;-6.92;45.01
63343;BME280;49465;57.664;39.686;2024-01-10T06:50:10;100428.81;;;-6.96;45.06
63343;BME280;49465;57.664;39.686;2024-01-10T06:52:37;100433.88;;;-7.02;45.11
63343;BME280;49465;57.664;39.686;2024-01-10T06:55:09;100436.38;;;-7.08;44.72
63343;BME280;49465;57.664;39.686;2024-01-10T06:57:40;100441.41;;;-7.11;44.68
63343;BME280;49465;57.664;39.686;2024-01-10T07:00:07;100440.56;;;-7.13;44.98
63343;BME280;49465;57.664;39.686;2024-01-10T07:02:42;100443.09;;;-7.15;44.73
63343;BME280;49465;57.664;39.686;2024-01-10T07:05:17;100447.31;;;-7.19;44.69
63343;BME280;49465;57.664;39.686;2024-01-10T07:07:54;100448.13;;;-7.23;44.64
63343;BME280;49465;57.664;39.686;2024-01-10T07:10:32;100456.56;;;-7.28;44.47
63343;BME280;49465;57.664;39.686;2024-01-10T07:13:09;100455.59;;;-7.35;44.63
63343;BME280;49465;57.664;39.686;2024-01-10T07:15:40;100459.84;;;-7.39;44.35
63343;BME280;49465;57.664;39.686;2024-01-10T07:18:15;100458.06;;;-7.44;45.13
63343;BME280;49465;57.664;39.686;2024-01-10T07:20:47;100462.31;;;-7.46;45.06
63343;BME280;49465;57.664;39.686;2024-01-10T07:23:19;100464.78;;;-7.49;44.83
63343;BME280;49465;57.664;39.686;2024-01-10T07:25:49;100466.47;;;-7.51;44.37
63343;BME280;49465;57.664;39.686;2024-01-10T07:28:31;100468.94;;;-7.58;44.48
63343;BME280;49465;57.664;39.686;2024-01-10T07:31:03;100472.25;;;-7.65;44.39
63343;BME280;49465;57.664;39.686;2024-01-10T07:33:38;100473.91;;;-7.70;44.45
63343;BME280;49465;57.664;39.686;2024-01-10T07:36:10;100475.44;;;-7.81;44.59
63343;BME280;49465;57.664;39.686;2024-01-10T07:38:40;100475.44;;;-7.81;45.15
63343;BME280;49465;57.664;39.686;2024-01-10T07:41:12;100477.97;;;-7.81;44.76
63343;BME280;49465;57.664;39.686;2024-01-10T07:43:46;100475.38;;;-7.87;44.45
63343;BME280;49465;57.664;39.686;2024-01-10T07:46:24;100484.59;;;-7.96;45.00
63343;BME280;49465;57.664;39.686;2024-01-10T07:48:59;100482.75;;;-8.04;44.99
63343;BME280;49465;57.664;39.686;2024-01-10T07:51:26;100487.03;;;-8.02;44.69
63343;BME280;49465;57.664;39.686;2024-01-10T07:53:52;100484.31;;;-8.14;44.90
63343;BME280;49465;57.664;39.686;2024-01-10T07:56:28;100488.28;;;-8.31;44.78
63343;BME280;49465;57.664;39.686;2024-01-10T07:59:00;100484.75;;;-8.41;45.50
63343;BME280;49465;57.664;39.686;2024-01-10T08:01:32;100483.75;;;-8.51;45.80
63343;BME280;49465;57.664;39.686;2024-01-10T08:04:06;100478.41;;;-8.68;45.73
63343;BME280;49465;57.664;39.686;2024-01-10T08:06:40;100479.41;;;-8.60;45.47
63343;BME280;49465;57.664;39.686;2024-01-10T08:09:15;100484.44;;;-8.61;46.10
63343;BME280;49465;57.664;39.686;2024-01-10T08:11:45;100484.75;;;-8.43;45.75
63343;BME280;49465;57.664;39.686;2024-01-10T08:14:16;100490.03;;;-8.27;45.66
63343;BME280;49465;57.664;39.686;2024-01-10T08:16:48;100480.50;;;-8.44;45.26
63343;BME280;49465;57.664;39.686;2024-01-10T08:19:23;100487.63;;;-8.18;45.26
63343;BME280;49465;57.664;39.686;2024-01-10T08:21:57;100492.03;;;-8.08;45.14
63343;BME280;49465;57.664;39.686;2024-01-10T08:24:24;100491.06;;;-8.16;44.54
63343;BME280;49465;57.664;39.686;2024-01-10T08:26:55;100498.53;;;-8.25;45.33
63343;BME280;49465;57.664;39.686;2024-01-10T08:29:24;100495.25;;;-8.20;45.39
63343;BME280;49465;57.664;39.686;2024-01-10T08:32:00;100505.28;;;-8.27;45.06
63343;BME280;49465;57.664;39.686;2024-01-10T08:34:32;100499.34;;;-8.31;45.48
63343;BME280;49465;57.664;39.686;2024-01-10T08:37:00;100487.19;;;-8.49;45.94
63343;BME280;49465;57.664;39.686;2024-01-10T08:39:27;100492.69;;;-8.20;45.26
63343;BME280;49465;57.664;39.686;2024-01-10T08:42:05;100489.25;;;-8.25;45.27
63343;BME280;49465;57.664;39.686;2024-01-10T08:44:38;100493.72;;;-8.08;45.20
63343;BME280;49465;57.664;39.686;2024-01-10T08:47:10;100485.16;;;-8.15;44.87
63343;BME280;49465;57.664;39.686;2024-01-10T08:49:45;100482.72;;;-8.06;45.02
63343;BME280;49465;57.664;39.686;2024-01-10T08:52:15;100478.50;;;-8.04;44.92
63343;BME280;49465;57.664;39.686;2024-01-10T08:54:46;100472.44;;;-8.15;45.47
63343;BME280;49465;57.664;39.686;2024-01-10T08:57:15;100480.00;;;-8.18;46.14
63343;BME280;49465;57.664;39.686;2024-01-10T08:59:47;100484.25;;;-8.19;45.46
63343;BME280;49465;57.664;39.686;2024-01-10T09:02:18;100489.28;;;-8.22;45.87
63343;BME280;49465;57.664;39.686;2024-01-10T09:04:53;100482.50;;;-8.21;46.21
63343;BME280;49465;57.664;39.686;2024-01-10T09:07:19;100479.88;;;-8.26;46.05
63343;BME280;49465;57.664;39.686;2024-01-10T09:09:51;100486.81;;;-8.17;45.99
63343;BME280;49465;57.664;39.686;2024-01-10T09:12:26;100481.00;;;-8.08;46.25
63343;BME280;49465;57.664;39.686;2024-01-10T09:14:59;100480.25;;;-8.01;45.99
63343;BME280;49465;57.664;39.686;2024-01-10T09:17:38;100472.03;;;-7.80;45.22
63343;BME280;49465;57.664;39.686;2024-01-10T09:20:10;100475.47;;;-7.78;45.15
63343;BME280;49465;57.664;39.686;2024-01-10T09:22:45;100474.50;;;-7.89;45.31
63343;BME280;49465;57.664;39.686;2024-01-10T09:25:19;100473.34;;;-8.10;46.31
63343;BME280;49465;57.664;39.686;2024-01-10T09:27:54;100471.66;;;-8.08;45.92
63343;BME280;49465;57.664;39.686;2024-01-10T09:30:32;100469.13;;;-8.09;46.10
63343;BME280;49465;57.664;39.686;2024-01-10T09:33:07;100462.38;;;-8.04;46.27
63343;BME280;49465;57.664;39.686;2024-01-10T09:35:37;100454.94;;;-7.90;45.83
63343;BME280;49465;57.664;39.686;2024-01-10T09:38:08;100460.25;;;-7.73;45.85
63343;BME280;49465;57.664;39.686;2024-01-10T09:40:37;100463.66;;;-7.73;46.27
63343;BME280;49465;57.664;39.686;2024-01-10T09:43:06;100465.56;;;-7.55;45.51
63343;BME280;49465;57.664;39.686;2024-01-10T09:45:42;100463.25;;;-7.37;45.03
63343;BME280;49465;57.664;39.686;2024-01-10T09:48:14;100460.81;;;-7.26;44.95
63343;BME280;49465;57.664;39.686;2024-01-10T09:50:47;100461.72;;;-7.21;45.00
63343;BME280;49465;57.664;39.686;2024-01-10T09:53:25;100454.13;;;-7.19;44.85
63343;BME280;49465;57.664;39.686;2024-01-10T09:55:55;100450.72;;;-7.17;44.89
63343;BME280;49465;57.664;39.686;2024-01-10T09:58:31;100450.72;;;-7.17;44.63
63343;BME280;49465;57.664;39.686;2024-01-10T10:01:02;100455.00;;;-7.14;44.57
63343;BME280;49465;57.664;39.686;2024-01-10T10:03:38;100453.22;;;-7.20;44.86
63343;BME280;49465;57.664;39.686;2024-01-10T10:06:12;100453.22;;;-7.23;44.85
63343;BME280;49465;57.664;39.686;2024-01-10T10:08:47;100460.06;;;-7.16;45.14
63343;BME280;49465;57.664;39.686;2024-01-10T10:11:15;100449.97;;;-7.09;45.36
63343;BME280;49465;57.664;39.686;2024-01-10T10:13:50;100449.09;;;-7.08;44.80
63343;BME280;49465;57.664;39.686;2024-01-10T10:16:25;100449.16;;;-7.05;44.66
63343;BME280;49465;57.664;39.686;2024-01-10T10:18:57;100451.69;;;-7.04;44.74
63343;BME280;49465;57.664;39.686;2024-01-10T10:21:32;100450.00;;;-7.05;45.11
63343;BME280;49465;57.664;39.686;2024-01-10T10:24:01;100455.13;;;-7.03;44.80
63343;BME280;49465;57.664;39.686;2024-01-10T10:26:36;100449.19;;;-7.01;44.76
63343;BME280;49465;57.664;39.686;2024-01-10T10:29:10;100442.38;;;-7.00;45.07
63343;BME280;49465;57.664;39.686;2024-01-10T10:31:48;100442.38;;;-7.00;45.03
63343;BME280;49465;57.664;39.686;2024-01-10T10:34:21;100441.56;;;-6.99;45.26
63343;BME280;49465;57.664;39.686;2024-01-10T10:36:53;100430.50;;;-6.98;45.23
63343;BME280;49465;57.664;39.686;2024-01-10T10:39:34;100434.81;;;-6.96;45.30
63343;BME280;49465;57.664;39.686;2024-01-10T10:42:11;100425.44;;;-6.97;45.08
63343;BME280;49465;57.664;39.686;2024-01-10T10:44:47;100428.00;;;-6.95;44.92
63343;BME280;49465;57.664;39.686;2024-01-10T10:47:17;100422.03;;;-6.97;45.17
63343;BME280;49465;57.664;39.686;2024-01-10T10:49:52;100421.16;;;-6.99;45.18
63343;BME280;49465;57.664;39.686;2024-01-10T10:52:22;100415.22;;;-6.98;45.21
63343;BME280;49465;57.664;39.686;2024-01-10T10:54:53;100413.34;;;-7.16;44.89
63343;BME280;49465;57.664;39.686;2024-01-10T10:57:32;100422.59;;;-7.26;45.53
63343;BME280;49465;57.664;39.686;2024-01-10T10:59:59;100424.25;;;-7.31;45.83
63343;BME280;49465;57.664;39.686;2024-01-10T11:02:29;100425.97;;;-7.28;45.99
63343;BME280;49465;57.664;39.686;2024-01-10T11:04:58;100421.06;;;-7.10;45.64
63343;BME280;49465;57.664;39.686;2024-01-10T11:07:40;100416.84;;;-7.06;45.30
63343;BME280;49465;57.664;39.686;2024-01-10T11:13:13;100415.19;;;-7.01;45.64
63343;BME280;49465;57.664;39.686;2024-01-10T11:24:38;100411.56;;;-7.25;46.28
63343;BME280;49465;57.664;39.686;2024-01-10T11:30:04;100410.00;;;-7.10;46.08
63343;BME280;49465;57.664;39.686;2024-01-10T11:32:36;100415.19;;;-7.03;45.89
63343;BME280;49465;57.664;39.686;2024-01-10T11:35:18;100414.31;;;-7.05;46.26
63343;BME280;49465;57.664;39.686;2024-01-10T11:37:53;100416.00;;;-7.05;46.26
63343;BME280;49465;57.664;39.686;2024-01-10T11:43:12;100411.03;;;-6.93;46.15
63343;BME280;49465;57.664;39.686;2024-01-10T11:45:50;100418.69;;;-6.88;46.05
63343;BME280;49465;57.664;39.686;2024-01-10T11:48:28;100409.47;;;-6.76;45.63
63343;BME280;49465;57.664;39.686;2024-01-10T11:51:00;100416.97;;;-6.91;46.05
63343;BME280;49465;57.664;39.686;2024-01-10T11:53:43;100409.44;;;-6.79;45.71
63343;BME280;49465;57.664;39.686;2024-01-10T11:56:17;100402.56;;;-6.87;46.23
63343;BME280;49465;57.664;39.686;2024-01-10T11:58:57;100398.41;;;-6.74;45.99
63343;BME280;49465;57.664;39.686;2024-01-10T12:01:30;100395.00;;;-6.77;46.25
63343;BME280;49465;57.664;39.686;2024-01-10T12:04:04;100389.06;;;-6.76;45.81
63343;BME280;49465;57.664;39.686;2024-01-10T12:06:43;100384.84;;;-6.73;45.93
63343;BME280;49465;57.664;39.686;2024-01-10T12:09:21;100393.31;;;-6.78;45.85
63343;BME280;49465;57.664;39.686;2024-01-10T12:11:50;100391.66;;;-6.69;46.11
63343;BME280;49465;57.664;39.686;2024-01-10T12:14:24;100377.19;;;-6.69;46.04
63343;BME280;49465;57.664;39.686;2024-01-10T12:16:59;100370.34;;;-6.74;45.73
63343;BME280;49465;57.664;39.686;2024-01-10T12:19:32;100365.31;;;-6.70;46.05
63343;BME280;49465;57.664;39.686;2024-01-10T12:22:13;100372.03;;;-6.77;45.50
63343;BME280;49465;57.664;39.686;2024-01-10T12:24:51;100364.44;;;-6.70;45.77
63343;BME280;49465;57.664;39.686;2024-01-10T12:27:21;100360.19;;;-6.68;45.84
63343;BME280;49465;57.664;39.686;2024-01-10T12:29:54;100356.84;;;-6.61;45.47
63343;BME280;49465;57.664;39.686;2024-01-10T12:32:29;100361.16;;;-6.51;45.38
63343;BME280;49465;57.664;39.686;2024-01-10T12:35:09;100356.09;;;-6.48;45.14
63343;BME280;49465;57.664;39.686;2024-01-10T12:37:35;100357.78;;;-6.47;45.48
63343;BME280;49465;57.664;39.686;2024-01-10T12:40:10;100364.56;;;-6.49;45.46
63343;BME280;49465;57.664;39.686;2024-01-10T12:42:42;100366.25;;;-6.54;45.38
63343;BME280;49465;57.664;39.686;2024-01-10T12:45:21;100381.53;;;-6.57;45.23
63343;BME280;49465;57.664;39.686;2024-01-10T12:47:47;100371.38;;;-6.54;45.08
63343;BME280;49465;57.664;39.686;2024-01-10T12:50:28;100377.31;;;-6.57;45.44
63343;BME280;49465;57.664;39.686;2024-01-10T12:53:01;100376.41;;;-6.59;45.51
63343;BME280;49465;57.664;39.686;2024-01-10T12:55:47;100373.03;;;-6.62;45.64
63343;BME280;49465;57.664;39.686;2024-01-10T12:58:16;100369.56;;;-6.69;45.53
63343;BME280;49465;57.664;39.686;2024-01-10T13:00:48;100356.78;;;-6.73;45.78
63343;BME280;49465;57.664;39.686;2024-01-10T13:03:20;100354.13;;;-6.84;45.86
63343;BME280;49465;57.664;39.686;2024-01-10T13:05:57;100351.66;;;-6.78;45.74
63343;BME280;49465;57.664;39.686;2024-01-10T13:08:41;100339.81;;;-6.70;45.52
63343;BME280;49465;57.664;39.686;2024-01-10T13:11:13;100337.28;;;-6.64;45.33
63343;BME280;49465;57.664;39.686;2024-01-10T13:13:40;100332.22;;;-6.59;45.35
63343;BME280;49465;57.664;39.686;2024-01-10T13:16:09;100325.41;;;-6.60;45.22
63343;BME280;49465;57.664;39.686;2024-01-10T13:18:38;100338.16;;;-6.59;45.44
63343;BME280;49465;57.664;39.686;2024-01-10T13:21:12;100327.09;;;-6.61;45.34
63343;BME280;49465;57.664;39.686;2024-01-10T13:23:42;100327.09;;;-6.62;45.36
63343;BME280;49465;57.664;39.686;2024-01-10T13:26:14;100332.19;;;-6.64;45.30
63343;BME280;49465;57.664;39.686;2024-01-10T13:28:47;100329.59;;;-6.70;45.34